createdAt,value
2023-03-07T00:00:00.378Z,4.8
2023-03-07T00:01:00.749Z,4.8
2023-03-07T00:02:00.368Z,4.8
2023-03-07T00:03:00.455Z,4.8
2023-03-07T00:04:00.404Z,4.7
2023-03-07T00:05:00.389Z,4.7
2023-03-07T00:06:02.859Z,4.8
2023-03-07T00:07:00.379Z,4.8
2023-03-07T00:08:00.370Z,4.7
2023-03-07T00:09:01.344Z,4.7
2023-03-07T00:10:00.370Z,4.7
2023-03-07T00:11:01.547Z,4.7
2023-03-07T00:12:00.362Z,4.6
2023-03-07T00:13:00.409Z,4.6
2023-03-07T00:14:00.356Z,4.6
2023-03-07T00:15:00.337Z,4.6
2023-03-07T00:16:01.662Z,4.5
2023-03-07T00:17:00.379Z,4.5
2023-03-07T00:18:00.352Z,4.5
2023-03-07T00:19:00.361Z,4.5
2023-03-07T00:20:00.355Z,4.5
2023-03-07T00:21:02.133Z,4.5
2023-03-07T00:22:00.372Z,4.4
2023-03-07T00:23:00.356Z,4.4
2023-03-07T00:24:00.383Z,4.5
2023-03-07T00:25:00.509Z,4.5
2023-03-07T00:26:03.091Z,4.5
2023-03-07T00:27:00.396Z,4.5
2023-03-07T00:28:00.388Z,4.5
2023-03-07T00:29:00.376Z,4.5
2023-03-07T00:30:01.262Z,4.5
2023-03-07T00:31:01.519Z,4.5
2023-03-07T00:32:00.343Z,4.5
2023-03-07T00:33:00.363Z,4.5
2023-03-07T00:34:00.646Z,4.6
2023-03-07T00:35:00.756Z,4.6
2023-03-07T00:36:02.220Z,4.5
2023-03-07T00:37:00.375Z,4.5
2023-03-07T00:38:00.336Z,4.5
2023-03-07T00:39:00.370Z,4.5
2023-03-07T00:40:00.404Z,4.4
2023-03-07T00:41:02.201Z,4.4
2023-03-07T00:42:00.344Z,4.4
2023-03-07T00:43:00.339Z,4.4
2023-03-07T00:44:00.347Z,4.4
2023-03-07T00:45:00.364Z,4.4
2023-03-07T00:46:01.010Z,4.4
2023-03-07T00:47:00.468Z,4.4
2023-03-07T00:48:00.340Z,4.4
2023-03-07T00:49:00.347Z,4.4
2023-03-07T00:50:00.351Z,4.4
2023-03-07T00:51:00.670Z,4.4
2023-03-07T00:52:00.491Z,4.3
2023-03-07T00:53:00.361Z,4.3
2023-03-07T00:54:00.366Z,4.3
2023-03-07T00:55:00.340Z,4.3
2023-03-07T00:56:03.145Z,4.3
2023-03-07T00:57:00.353Z,4.3
2023-03-07T00:58:00.363Z,4.3
2023-03-07T00:59:00.366Z,4.3
2023-03-07T01:00:00.345Z,4.3
2023-03-07T01:01:00.919Z,4.3
2023-03-07T01:02:00.346Z,4.2
2023-03-07T01:03:00.383Z,4.2
2023-03-07T01:04:00.413Z,4.2
2023-03-07T01:05:00.344Z,4.2
2023-03-07T01:06:02.707Z,4.2
2023-03-07T01:07:00.355Z,4.2
2023-03-07T01:08:00.366Z,4.2
2023-03-07T01:09:02.680Z,4.2
2023-03-07T01:10:00.435Z,4.3
2023-03-07T01:11:01.378Z,4.3
2023-03-07T01:12:00.343Z,4.3
2023-03-07T01:13:00.407Z,4.3
2023-03-07T01:14:01.559Z,4.3
2023-03-07T01:15:00.459Z,4.3
2023-03-07T01:16:10.326Z,4.3
2023-03-07T01:17:00.713Z,4.3
2023-03-07T01:18:00.414Z,4.3
2023-03-07T01:19:03.258Z,4.3
2023-03-07T01:20:00.548Z,4.3
2023-03-07T01:21:00.352Z,4.3
2023-03-07T01:22:00.370Z,4.2
2023-03-07T01:23:00.516Z,4.2
2023-03-07T01:24:00.390Z,4.2
2023-03-07T01:25:00.375Z,4.2
2023-03-07T01:26:00.334Z,4.2
2023-03-07T01:27:00.337Z,4.2
2023-03-07T01:28:00.345Z,4.2
2023-03-07T01:29:01.608Z,4.2
2023-03-07T01:30:00.345Z,4.3
2023-03-07T01:31:00.344Z,4.3
2023-03-07T01:32:00.389Z,4.3
2023-03-07T01:33:00.876Z,4.3
2023-03-07T01:34:01.013Z,4.2
2023-03-07T01:35:00.342Z,4.2
2023-03-07T01:36:00.507Z,4.3
2023-03-07T01:37:00.372Z,4.3
2023-03-07T01:38:00.374Z,4.3
2023-03-07T01:39:05.034Z,4.3
2023-03-07T01:40:00.347Z,4.3
2023-03-07T01:41:00.545Z,4.3
2023-03-07T01:42:00.367Z,4.3
2023-03-07T01:43:10.297Z,4.3
2023-03-07T01:44:01.260Z,4.3
2023-03-07T01:45:10.276Z,4.3
2023-03-07T01:46:10.352Z,4.3
2023-03-07T01:47:00.570Z,4.3
2023-03-07T01:48:00.396Z,4.3
2023-03-07T01:49:02.619Z,4.3
2023-03-07T01:50:02.907Z,4.3
2023-03-07T01:51:00.360Z,4.3
2023-03-07T01:52:04.920Z,4.3
2023-03-07T01:53:00.416Z,4.3
2023-03-07T01:54:00.726Z,4.3
2023-03-07T01:55:10.274Z,4.3
2023-03-07T01:56:00.516Z,4.3
2023-03-07T01:57:01.387Z,4.3
2023-03-07T01:58:05.749Z,4.3
2023-03-07T01:59:00.565Z,4.3
2023-03-07T02:00:02.720Z,4.3
2023-03-07T02:01:00.451Z,4.3
2023-03-07T02:02:04.036Z,4.4
2023-03-07T02:03:07.674Z,4.4
2023-03-07T02:04:10.347Z,4.3
2023-03-07T02:05:10.351Z,4.3
2023-03-07T02:06:02.353Z,4.4
2023-03-07T02:07:01.606Z,4.4
2023-03-07T02:08:01.792Z,4.4
2023-03-07T02:09:01.584Z,4.4
2023-03-07T02:10:00.624Z,4.3
2023-03-07T02:11:00.464Z,4.3
2023-03-07T02:12:00.689Z,4.4
2023-03-07T02:13:00.378Z,4.4
2023-03-07T02:14:00.344Z,4.4
2023-03-07T02:15:01.364Z,4.4
2023-03-07T02:16:01.648Z,4.5
2023-03-07T02:17:00.407Z,4.5
2023-03-07T02:18:00.804Z,4.4
2023-03-07T02:19:00.402Z,4.4
2023-03-07T02:20:10.310Z,4.3
2023-03-07T02:21:10.276Z,4.3
2023-03-07T02:22:06.586Z,4.4
2023-03-07T02:23:00.690Z,4.4
2023-03-07T02:24:01.373Z,4.3
2023-03-07T02:25:02.028Z,4.3
2023-03-07T02:26:06.298Z,4.3
2023-03-07T02:27:00.339Z,4.3
2023-03-07T02:28:00.774Z,4.3
2023-03-07T02:29:01.039Z,4.3
2023-03-07T02:30:00.686Z,4.3
2023-03-07T02:31:02.687Z,4.3
2023-03-07T02:32:00.366Z,4.4
2023-03-07T02:33:00.385Z,4.4
2023-03-07T02:34:00.371Z,4.3
2023-03-07T02:35:00.376Z,4.3
2023-03-07T02:36:04.235Z,4.4
2023-03-07T02:37:05.781Z,4.4
2023-03-07T02:38:01.914Z,4.4
2023-03-07T02:39:01.658Z,4.4
2023-03-07T02:40:02.660Z,4.4
2023-03-07T02:41:00.353Z,4.4
2023-03-07T02:42:04.081Z,4.4
2023-03-07T02:43:02.048Z,4.4
2023-03-07T02:44:00.389Z,4.4
2023-03-07T02:45:01.365Z,4.4
2023-03-07T02:46:00.405Z,4.4
2023-03-07T02:47:00.378Z,4.4
2023-03-07T02:48:00.354Z,4.4
2023-03-07T02:49:00.371Z,4.4
2023-03-07T02:50:00.478Z,4.4
2023-03-07T02:51:00.399Z,4.4
2023-03-07T02:52:00.436Z,4.4
2023-03-07T02:53:00.372Z,4.4
2023-03-07T02:54:00.371Z,4.5
2023-03-07T02:55:00.346Z,4.5
2023-03-07T02:56:00.352Z,4.5
2023-03-07T02:57:00.343Z,4.5
2023-03-07T02:58:00.440Z,4.5
2023-03-07T02:59:00.397Z,4.5
2023-03-07T03:00:00.749Z,4.5
2023-03-07T03:01:00.386Z,4.5
2023-03-07T03:02:00.399Z,4.5
2023-03-07T03:03:00.374Z,4.5
2023-03-07T03:04:00.357Z,4.4
2023-03-07T03:05:00.492Z,4.4
2023-03-07T03:06:00.364Z,4.5
2023-03-07T03:07:00.411Z,4.5
2023-03-07T03:08:00.370Z,4.4
2023-03-07T03:09:00.343Z,4.4
2023-03-07T03:10:00.334Z,4.4
2023-03-07T03:11:00.383Z,4.4
2023-03-07T03:12:00.414Z,4.5
2023-03-07T03:13:00.467Z,4.5
2023-03-07T03:14:00.395Z,4.4
2023-03-07T03:15:00.373Z,4.4
2023-03-07T03:16:00.454Z,4.5
2023-03-07T03:17:00.363Z,4.5
2023-03-07T03:18:00.417Z,4.4
2023-03-07T03:19:00.394Z,4.4
2023-03-07T03:20:00.406Z,4.5
2023-03-07T03:21:05.761Z,4.5
2023-03-07T03:22:00.761Z,4.4
2023-03-07T03:23:00.356Z,4.4
2023-03-07T03:24:04.712Z,4.4
2023-03-07T03:25:00.386Z,4.4
2023-03-07T03:26:02.657Z,4.4
2023-03-07T03:27:00.346Z,4.4
2023-03-07T03:28:00.459Z,4.4
2023-03-07T03:29:00.517Z,4.4
2023-03-07T03:30:00.477Z,4.4
2023-03-07T03:31:02.207Z,4.4
2023-03-07T03:32:00.922Z,4.3
2023-03-07T03:33:01.084Z,4.3
2023-03-07T03:34:00.616Z,4.3
2023-03-07T03:35:00.368Z,4.3
2023-03-07T03:36:05.591Z,4.3
2023-03-07T03:37:00.382Z,4.3
2023-03-07T03:38:00.373Z,4.4
2023-03-07T03:39:00.370Z,4.4
2023-03-07T03:40:00.408Z,4.3
2023-03-07T03:41:09.319Z,4.3
2023-03-07T03:42:00.345Z,4.3
2023-03-07T03:43:00.344Z,4.3
2023-03-07T03:44:00.342Z,4.3
2023-03-07T03:45:00.353Z,4.3
2023-03-07T03:46:00.372Z,4.3
2023-03-07T03:47:00.466Z,4.3
2023-03-07T03:48:00.382Z,4.3
2023-03-07T03:49:00.360Z,4.3
2023-03-07T03:50:00.405Z,4.4
2023-03-07T03:51:04.673Z,4.4
2023-03-07T03:52:00.336Z,4.4
2023-03-07T03:53:00.695Z,4.4
2023-03-07T03:54:00.353Z,4.4
2023-03-07T03:55:00.364Z,4.4
2023-03-07T03:56:01.136Z,4.4
2023-03-07T03:57:00.343Z,4.4
2023-03-07T03:58:00.361Z,4.4
2023-03-07T03:59:00.373Z,4.4
2023-03-07T04:00:00.362Z,4.4
2023-03-07T04:01:00.962Z,4.4
2023-03-07T04:02:00.489Z,4.4
2023-03-07T04:03:00.407Z,4.4
2023-03-07T04:04:00.399Z,4.4
2023-03-07T04:05:00.368Z,4.4
2023-03-07T04:06:02.798Z,4.3
2023-03-07T04:07:00.360Z,4.3
2023-03-07T04:08:00.453Z,4.3
2023-03-07T04:09:00.946Z,4.3
2023-03-07T04:10:00.371Z,4.3
2023-03-07T04:11:00.387Z,4.3
2023-03-07T04:12:00.852Z,4.3
2023-03-07T04:13:00.369Z,4.3
2023-03-07T04:14:00.590Z,4.3
2023-03-07T04:15:00.340Z,4.3
2023-03-07T04:16:00.791Z,4.3
2023-03-07T04:17:00.360Z,4.3
2023-03-07T04:18:00.346Z,4.3
2023-03-07T04:19:00.368Z,4.3
2023-03-07T04:20:00.332Z,4.2
2023-03-07T04:21:00.369Z,4.2
2023-03-07T04:22:00.370Z,4.3
2023-03-07T04:23:00.335Z,4.3
2023-03-07T04:24:00.334Z,4.3
2023-03-07T04:25:00.348Z,4.3
2023-03-07T04:26:01.166Z,4.3
2023-03-07T04:27:00.378Z,4.3
2023-03-07T04:28:00.362Z,4.2
2023-03-07T04:29:00.397Z,4.2
2023-03-07T04:30:00.334Z,4.3
2023-03-07T04:31:00.332Z,4.3
2023-03-07T04:32:00.639Z,4.2
2023-03-07T04:33:00.339Z,4.2
2023-03-07T04:34:00.350Z,4.3
2023-03-07T04:35:00.337Z,4.3
2023-03-07T04:36:00.384Z,4.3
2023-03-07T04:37:00.358Z,4.3
2023-03-07T04:38:00.379Z,4.3
2023-03-07T04:39:00.361Z,4.3
2023-03-07T04:40:00.484Z,4.2
2023-03-07T04:41:00.462Z,4.2
2023-03-07T04:42:00.380Z,4.2
2023-03-07T04:43:00.406Z,4.2
2023-03-07T04:44:00.379Z,4.2
2023-03-07T04:45:00.401Z,4.2
2023-03-07T04:46:00.421Z,4.3
2023-03-07T04:47:00.360Z,4.3
2023-03-07T04:48:00.540Z,4.2
2023-03-07T04:49:00.342Z,4.2
2023-03-07T04:50:00.361Z,4.2
2023-03-07T04:51:00.339Z,4.2
2023-03-07T04:52:00.337Z,4.3
2023-03-07T04:53:00.364Z,4.3
2023-03-07T04:54:00.358Z,4.3
2023-03-07T04:55:00.364Z,4.3
2023-03-07T04:56:01.201Z,4.2
2023-03-07T04:57:00.358Z,4.2
2023-03-07T04:58:00.341Z,4.3
2023-03-07T04:59:00.339Z,4.3
2023-03-07T05:00:00.762Z,4.2
2023-03-07T05:01:02.225Z,4.2
2023-03-07T05:02:00.408Z,4.3
2023-03-07T05:03:00.363Z,4.3
2023-03-07T05:04:00.362Z,4.3
2023-03-07T05:05:00.371Z,4.3
2023-03-07T05:06:01.687Z,4.3
2023-03-07T05:07:00.356Z,4.3
2023-03-07T05:08:00.472Z,4.2
2023-03-07T05:09:00.358Z,4.2
2023-03-07T05:10:00.442Z,4.2
2023-03-07T05:11:00.647Z,4.2
2023-03-07T05:12:00.342Z,4.2
2023-03-07T05:13:00.647Z,4.2
2023-03-07T05:14:00.329Z,4.2
2023-03-07T05:15:00.366Z,4.2
2023-03-07T05:16:00.475Z,4.2
2023-03-07T05:17:00.366Z,4.2
2023-03-07T05:18:00.344Z,4.2
2023-03-07T05:19:00.342Z,4.2
2023-03-07T05:20:00.389Z,4.2
2023-03-07T05:21:00.373Z,4.2
2023-03-07T05:22:00.364Z,4.2
2023-03-07T05:23:00.358Z,4.2
2023-03-07T05:24:00.360Z,4.1
2023-03-07T05:25:00.372Z,4.1
2023-03-07T05:26:00.350Z,4.1
2023-03-07T05:27:00.432Z,4.1
2023-03-07T05:28:00.390Z,4.2
2023-03-07T05:29:00.364Z,4.2
2023-03-07T05:30:00.542Z,4.1
2023-03-07T05:31:00.406Z,4.1
2023-03-07T05:32:00.732Z,4.1
2023-03-07T05:33:00.379Z,4.1
2023-03-07T05:34:00.446Z,4.1
2023-03-07T05:35:00.373Z,4.1
2023-03-07T05:36:00.956Z,4.1
2023-03-07T05:37:00.361Z,4.1
2023-03-07T05:38:00.360Z,4.1
2023-03-07T05:39:00.336Z,4.1
2023-03-07T05:40:00.373Z,4.1
2023-03-07T05:41:00.334Z,4.1
2023-03-07T05:42:00.361Z,4.0
2023-03-07T05:43:00.437Z,4.0
2023-03-07T05:44:00.379Z,4.1
2023-03-07T05:45:00.341Z,4.1
2023-03-07T05:46:00.444Z,4.0
2023-03-07T05:47:00.364Z,4.0
2023-03-07T05:48:00.590Z,4.0
2023-03-07T05:49:00.342Z,4.0
2023-03-07T05:50:00.403Z,4.0
2023-03-07T05:51:00.342Z,4.0
2023-03-07T05:52:00.411Z,4.0
2023-03-07T05:53:00.374Z,4.0
2023-03-07T05:54:00.362Z,4.0
2023-03-07T05:55:00.384Z,4.0
2023-03-07T05:56:00.340Z,4.0
2023-03-07T05:57:00.354Z,4.0
2023-03-07T05:58:00.417Z,4.0
2023-03-07T05:59:00.335Z,4.0
2023-03-07T06:00:00.409Z,4.0
2023-03-07T06:01:01.168Z,4.0
2023-03-07T06:02:00.334Z,3.9
2023-03-07T06:03:01.331Z,3.9
2023-03-07T06:04:00.404Z,4.0
2023-03-07T06:05:00.342Z,4.0
2023-03-07T06:06:00.335Z,4.0
2023-03-07T06:07:00.447Z,4.0
2023-03-07T06:08:00.375Z,4.0
2023-03-07T06:09:00.412Z,4.0
2023-03-07T06:10:00.340Z,4.0
2023-03-07T06:11:00.395Z,4.0
2023-03-07T06:12:00.335Z,4.0
2023-03-07T06:13:00.347Z,4.0
2023-03-07T06:14:00.345Z,4.0
2023-03-07T06:15:00.358Z,4.0
2023-03-07T06:16:00.373Z,4.0
2023-03-07T06:17:00.364Z,4.0
2023-03-07T06:18:00.333Z,4.0
2023-03-07T06:19:00.381Z,4.0
2023-03-07T06:20:00.358Z,4.0
2023-03-07T06:21:01.500Z,4.0
2023-03-07T06:22:00.390Z,4.0
2023-03-07T06:23:00.392Z,4.0
2023-03-07T06:24:00.359Z,4.0
2023-03-07T06:25:00.390Z,4.0
2023-03-07T06:26:00.964Z,4.1
2023-03-07T06:27:00.344Z,4.1
2023-03-07T06:28:00.376Z,4.0
2023-03-07T06:29:00.477Z,4.0
2023-03-07T06:30:00.366Z,4.0
2023-03-07T06:31:00.430Z,4.0
2023-03-07T06:32:00.580Z,3.9
2023-03-07T06:33:00.335Z,3.9
2023-03-07T06:34:00.340Z,3.8
2023-03-07T06:35:00.344Z,3.8
2023-03-07T06:36:03.916Z,3.7
2023-03-07T06:37:00.343Z,3.7
2023-03-07T06:38:00.364Z,3.7
2023-03-07T06:39:00.361Z,3.7
2023-03-07T06:40:00.386Z,3.7
2023-03-07T06:41:00.494Z,3.7
2023-03-07T06:42:00.370Z,3.5
2023-03-07T06:43:00.583Z,3.5
2023-03-07T06:44:00.399Z,3.4
2023-03-07T06:45:00.371Z,3.4
2023-03-07T06:46:00.481Z,3.5
2023-03-07T06:47:00.373Z,3.5
2023-03-07T06:48:00.365Z,3.5
2023-03-07T06:49:00.363Z,3.5
2023-03-07T06:50:00.369Z,3.4
2023-03-07T06:51:08.290Z,3.4
2023-03-07T06:52:00.360Z,3.4
2023-03-07T06:53:00.343Z,3.4
2023-03-07T06:54:00.359Z,3.3
2023-03-07T06:55:01.231Z,3.3
2023-03-07T06:56:00.519Z,3.1
2023-03-07T06:57:00.341Z,3.1
2023-03-07T06:58:00.371Z,3.2
2023-03-07T06:59:00.377Z,3.2
2023-03-07T07:00:01.112Z,3.2
2023-03-07T07:01:00.337Z,3.2
2023-03-07T07:02:01.195Z,3.2
2023-03-07T07:03:00.497Z,3.2
2023-03-07T07:04:00.379Z,3.3
2023-03-07T07:05:01.395Z,3.3
2023-03-07T07:06:00.343Z,3.3
2023-03-07T07:07:00.369Z,3.3
2023-03-07T07:08:00.343Z,3.3
2023-03-07T07:09:00.351Z,3.3
2023-03-07T07:10:00.387Z,3.2
2023-03-07T07:11:00.376Z,3.2
2023-03-07T07:12:00.395Z,3.2
2023-03-07T07:13:00.362Z,3.2
2023-03-07T07:14:00.350Z,3.2
2023-03-07T07:15:00.383Z,3.2
2023-03-07T07:16:04.284Z,3.2
2023-03-07T07:17:00.497Z,3.2
2023-03-07T07:18:00.371Z,3.2
2023-03-07T07:19:00.486Z,3.2
2023-03-07T07:20:02.767Z,3.1
2023-03-07T07:21:00.392Z,3.1
2023-03-07T07:22:00.410Z,3.1
2023-03-07T07:23:00.369Z,3.1
2023-03-07T07:24:00.536Z,3.0
2023-03-07T07:25:00.376Z,3.0
2023-03-07T07:26:00.396Z,3.2
2023-03-07T07:27:00.329Z,3.2
2023-03-07T07:28:00.371Z,3.1
2023-03-07T07:29:00.368Z,3.1
2023-03-07T07:30:00.390Z,3.2
2023-03-07T07:31:00.396Z,3.2
2023-03-07T07:32:00.501Z,3.2
2023-03-07T07:33:00.526Z,3.2
2023-03-07T07:34:00.347Z,3.3
2023-03-07T07:35:00.406Z,3.3
2023-03-07T07:36:00.454Z,3.4
2023-03-07T07:37:00.343Z,3.4
2023-03-07T07:38:00.348Z,3.3
2023-03-07T07:39:02.242Z,3.3
2023-03-07T07:40:00.370Z,3.3
2023-03-07T07:41:00.359Z,3.3
2023-03-07T07:42:00.408Z,3.1
2023-03-07T07:43:00.380Z,3.1
2023-03-07T07:44:00.367Z,3.1
2023-03-07T07:45:00.478Z,3.1
2023-03-07T07:46:02.293Z,3.2
2023-03-07T07:47:00.402Z,3.2
2023-03-07T07:48:00.354Z,3.2
2023-03-07T07:49:00.347Z,3.2
2023-03-07T07:50:00.375Z,3.2
2023-03-07T07:51:00.939Z,3.2
2023-03-07T07:52:00.394Z,3.2
2023-03-07T07:53:00.350Z,3.2
2023-03-07T07:54:00.403Z,3.3
2023-03-07T07:55:00.385Z,3.3
2023-03-07T07:56:00.351Z,3.2
2023-03-07T07:57:00.353Z,3.2
2023-03-07T07:58:00.569Z,3.2
2023-03-07T07:59:00.347Z,3.2
2023-03-07T08:00:00.342Z,3.1
2023-03-07T08:01:00.377Z,3.1
2023-03-07T08:02:00.596Z,3.2
2023-03-07T08:03:00.338Z,3.2
2023-03-07T08:04:00.350Z,3.2
2023-03-07T08:05:00.490Z,3.2
2023-03-07T08:06:00.373Z,3.1
2023-03-07T08:07:00.376Z,3.1
2023-03-07T08:08:00.371Z,3.2
2023-03-07T08:09:00.473Z,3.2
2023-03-07T08:10:00.371Z,3.2
2023-03-07T08:11:00.413Z,3.2
2023-03-07T08:12:00.345Z,3.1
2023-03-07T08:13:00.370Z,3.1
2023-03-07T08:14:00.941Z,3.1
2023-03-07T08:15:00.350Z,3.1
2023-03-07T08:16:07.032Z,3.1
2023-03-07T08:17:00.374Z,3.1
2023-03-07T08:18:00.379Z,2.9
2023-03-07T08:19:00.359Z,2.9
2023-03-07T08:20:01.604Z,3.0
2023-03-07T08:21:00.367Z,3.0
2023-03-07T08:22:00.944Z,3.0
2023-03-07T08:23:00.376Z,3.0
2023-03-07T08:24:00.348Z,3.1
2023-03-07T08:25:00.349Z,3.1
2023-03-07T08:26:02.143Z,2.8
2023-03-07T08:27:00.829Z,2.8
2023-03-07T08:28:00.374Z,2.9
2023-03-07T08:29:00.386Z,2.9
2023-03-07T08:30:00.414Z,2.9
2023-03-07T08:31:08.752Z,2.9
2023-03-07T08:32:00.386Z,2.9
2023-03-07T08:33:00.426Z,2.9
2023-03-07T08:34:00.386Z,2.8
2023-03-07T08:35:00.367Z,2.8
2023-03-07T08:36:00.613Z,2.8
2023-03-07T08:37:00.381Z,2.8
2023-03-07T08:38:00.418Z,2.8
2023-03-07T08:39:00.359Z,2.8
2023-03-07T08:40:00.421Z,2.6
2023-03-07T08:41:00.777Z,2.6
2023-03-07T08:42:00.352Z,2.7
2023-03-07T08:43:00.399Z,2.7
2023-03-07T08:44:00.472Z,2.6
2023-03-07T08:45:00.354Z,2.6
2023-03-07T08:46:00.481Z,2.6
2023-03-07T08:47:00.396Z,2.6
2023-03-07T08:48:00.379Z,2.6
2023-03-07T08:49:00.604Z,2.6
2023-03-07T08:50:00.482Z,2.5
2023-03-07T08:51:09.569Z,2.5
2023-03-07T08:52:00.373Z,2.5
2023-03-07T08:53:00.381Z,2.5
2023-03-07T08:54:00.351Z,2.5
2023-03-07T08:55:00.336Z,2.5
2023-03-07T08:56:04.078Z,2.5
2023-03-07T08:57:00.351Z,2.5
2023-03-07T08:58:00.341Z,2.5
2023-03-07T08:59:00.370Z,2.5
2023-03-07T09:00:00.374Z,2.5
2023-03-07T09:01:00.536Z,2.5
2023-03-07T09:02:00.426Z,2.4
2023-03-07T09:03:00.365Z,2.4
2023-03-07T09:04:00.381Z,2.5
2023-03-07T09:05:00.470Z,2.5
2023-03-07T09:06:01.006Z,2.5
2023-03-07T09:07:01.742Z,2.5
2023-03-07T09:08:00.385Z,2.6
2023-03-07T09:09:00.340Z,2.6
2023-03-07T09:10:00.440Z,2.5
2023-03-07T09:11:01.000Z,2.5
2023-03-07T09:12:00.348Z,2.4
2023-03-07T09:13:00.450Z,2.4
2023-03-07T09:14:00.380Z,2.6
2023-03-07T09:15:00.442Z,2.6
2023-03-07T09:16:03.470Z,2.7
2023-03-07T09:17:00.350Z,2.7
2023-03-07T09:18:00.367Z,2.7
2023-03-07T09:19:00.644Z,2.7
2023-03-07T09:20:00.387Z,2.6
2023-03-07T09:21:00.940Z,2.6
2023-03-07T09:22:00.335Z,2.6
2023-03-07T09:23:00.336Z,2.6
2023-03-07T09:24:00.380Z,2.7
2023-03-07T09:25:00.381Z,2.7
2023-03-07T09:26:01.364Z,2.7
2023-03-07T09:27:00.439Z,2.7
2023-03-07T09:28:00.374Z,2.7
2023-03-07T09:29:00.372Z,2.7
2023-03-07T09:30:00.380Z,2.7
2023-03-07T09:31:05.658Z,2.7
2023-03-07T09:32:01.616Z,2.8
2023-03-07T09:33:00.342Z,2.8
2023-03-07T09:34:00.379Z,2.8
2023-03-07T09:35:00.389Z,2.8
2023-03-07T09:36:03.184Z,2.8
2023-03-07T09:37:00.358Z,2.8
2023-03-07T09:38:00.413Z,2.8
2023-03-07T09:39:00.381Z,2.8
2023-03-07T09:40:00.425Z,3.0
2023-03-07T09:41:05.251Z,3.0
2023-03-07T09:42:01.354Z,2.9
2023-03-07T09:43:10.277Z,2.9
2023-03-07T09:44:07.678Z,2.9
2023-03-07T09:45:00.360Z,2.9
2023-03-07T09:46:03.721Z,2.9
2023-03-07T09:47:10.303Z,2.9
2023-03-07T09:48:07.839Z,3.0
2023-03-07T09:49:00.334Z,3.0
2023-03-07T09:50:01.296Z,3.1
2023-03-07T09:51:11.719Z,3.1
2023-03-07T09:52:01.261Z,3.0
2023-03-07T09:53:01.700Z,3.0
2023-03-07T09:54:04.732Z,3.0
2023-03-07T09:55:02.144Z,3.0
2023-03-07T09:56:01.675Z,3.0
2023-03-07T09:57:00.892Z,3.0
2023-03-07T09:58:05.493Z,3.0
2023-03-07T09:59:13.721Z,3.0
2023-03-07T10:00:09.459Z,3.0
2023-03-07T10:01:00.500Z,3.0
2023-03-07T10:02:10.303Z,3.1
2023-03-07T10:03:10.350Z,3.1
2023-03-07T10:04:03.151Z,3.0
2023-03-07T10:05:07.720Z,3.0
2023-03-07T10:06:06.485Z,3.0
2023-03-07T10:07:01.719Z,3.0
2023-03-07T10:08:00.657Z,3.1
2023-03-07T10:09:01.118Z,3.1
2023-03-07T10:10:04.531Z,3.2
2023-03-07T10:11:07.689Z,3.2
2023-03-07T10:12:04.927Z,3.2
2023-03-07T10:13:00.355Z,3.2
2023-03-07T10:14:07.879Z,3.3
2023-03-07T10:15:07.845Z,3.3
2023-03-07T10:16:03.637Z,3.3
2023-03-07T10:17:10.282Z,3.3
2023-03-07T10:18:10.301Z,3.3
2023-03-07T10:19:05.616Z,3.3
2023-03-07T10:20:09.486Z,3.3
2023-03-07T10:21:06.402Z,3.3
2023-03-07T10:22:00.355Z,3.4
2023-03-07T10:23:10.280Z,3.4
2023-03-07T10:24:10.302Z,3.4
2023-03-07T10:25:03.589Z,3.4
2023-03-07T10:26:00.369Z,3.6
2023-03-07T10:27:04.461Z,3.6
2023-03-07T10:28:10.310Z,3.6
2023-03-07T10:29:07.923Z,3.6
2023-03-07T10:30:09.247Z,3.5
2023-03-07T10:31:10.057Z,3.5
2023-03-07T10:32:10.375Z,3.5
2023-03-07T10:33:01.505Z,3.5
2023-03-07T10:34:13.608Z,3.6
2023-03-07T10:35:01.373Z,3.6
2023-03-07T10:36:05.007Z,3.7
2023-03-07T10:37:09.046Z,3.7
2023-03-07T10:38:10.336Z,3.7
2023-03-07T10:39:08.139Z,3.7
2023-03-07T10:40:00.393Z,3.7
2023-03-07T10:41:04.092Z,3.7
2023-03-07T10:42:00.352Z,3.8
2023-03-07T10:43:00.451Z,3.8
2023-03-07T10:44:00.443Z,3.8
2023-03-07T10:45:00.923Z,3.8
2023-03-07T10:46:23.675Z,3.8
2023-03-07T10:47:00.377Z,3.8
2023-03-07T10:48:10.309Z,3.9
2023-03-07T10:49:10.862Z,3.9
2023-03-07T10:50:10.299Z,3.8
2023-03-07T10:51:04.492Z,3.8
2023-03-07T10:52:05.397Z,3.7
2023-03-07T10:53:02.147Z,3.7
2023-03-07T10:54:01.123Z,3.8
2023-03-07T10:55:10.299Z,3.8
2023-03-07T10:56:10.276Z,3.8
2023-03-07T10:57:01.380Z,3.8
2023-03-07T10:58:10.303Z,3.8
2023-03-07T10:59:00.349Z,3.8
2023-03-07T11:00:10.310Z,3.9
2023-03-07T11:01:02.639Z,3.9
2023-03-07T11:02:01.661Z,3.9
2023-03-07T11:03:00.388Z,3.9
2023-03-07T11:04:01.944Z,4.0
2023-03-07T11:05:00.744Z,4.0
2023-03-07T11:06:00.352Z,4.1
2023-03-07T11:07:00.381Z,4.1
2023-03-07T11:08:10.289Z,4.1
2023-03-07T11:09:10.302Z,4.1
2023-03-07T11:10:01.729Z,4.3
2023-03-07T11:11:01.734Z,4.3
2023-03-07T11:12:10.290Z,4.3
2023-03-07T11:13:06.618Z,4.3
2023-03-07T11:14:04.918Z,4.2
2023-03-07T11:15:03.604Z,4.2
2023-03-07T11:16:11.418Z,4.2
2023-03-07T11:17:01.079Z,4.2
2023-03-07T11:18:00.360Z,4.2
2023-03-07T11:19:00.330Z,4.2
2023-03-07T11:20:00.501Z,4.2
2023-03-07T11:21:00.389Z,4.2
2023-03-07T11:22:01.776Z,4.2
2023-03-07T11:23:10.269Z,4.2
2023-03-07T11:24:02.042Z,4.4
2023-03-07T11:25:03.175Z,4.4
2023-03-07T11:26:10.289Z,4.3
2023-03-07T11:27:00.427Z,4.3
2023-03-07T11:28:00.405Z,4.2
2023-03-07T11:29:10.275Z,4.2
2023-03-07T11:30:05.109Z,4.2
2023-03-07T11:31:10.377Z,4.2
2023-03-07T11:32:05.379Z,4.3
2023-03-07T11:33:10.296Z,4.3
2023-03-07T11:34:04.843Z,4.1
2023-03-07T11:35:05.642Z,4.1
2023-03-07T11:36:05.917Z,4.1
2023-03-07T11:37:07.901Z,4.1
2023-03-07T11:38:10.267Z,4.0
2023-03-07T11:39:04.429Z,4.0
2023-03-07T11:40:10.210Z,4.0
2023-03-07T11:41:10.293Z,4.0
2023-03-07T11:42:07.109Z,4.0
2023-03-07T11:43:05.171Z,4.0
2023-03-07T11:44:10.278Z,4.0
2023-03-07T11:45:03.675Z,4.0
2023-03-07T11:46:10.312Z,4.1
2023-03-07T11:47:06.162Z,4.1
2023-03-07T11:48:10.087Z,4.2
2023-03-07T11:49:03.594Z,4.2
2023-03-07T11:50:03.624Z,4.2
2023-03-07T11:51:01.047Z,4.2
2023-03-07T11:52:10.271Z,4.1
2023-03-07T11:53:10.297Z,4.1
2023-03-07T11:54:04.334Z,4.1
2023-03-07T11:55:10.275Z,4.1
2023-03-07T11:56:10.307Z,4.1
2023-03-07T11:57:06.807Z,4.1
2023-03-07T11:58:09.039Z,4.2
2023-03-07T11:59:03.587Z,4.2
2023-03-07T12:00:10.311Z,4.1
2023-03-07T12:01:07.858Z,4.1
2023-03-07T12:02:01.236Z,4.2
2023-03-07T12:03:10.319Z,4.2
2023-03-07T12:04:00.350Z,4.3
2023-03-07T12:05:00.343Z,4.3
2023-03-07T12:06:10.274Z,4.4
2023-03-07T12:07:07.574Z,4.4
2023-03-07T12:08:10.270Z,4.2
2023-03-07T12:09:10.312Z,4.2
2023-03-07T12:10:03.628Z,4.2
2023-03-07T12:11:01.363Z,4.2
2023-03-07T12:12:10.307Z,4.2
2023-03-07T12:13:01.320Z,4.2
2023-03-07T12:14:10.306Z,4.1
2023-03-07T12:15:05.926Z,4.1
2023-03-07T12:16:10.296Z,4.2
2023-03-07T12:17:10.275Z,4.2
2023-03-07T12:18:10.304Z,4.2
2023-03-07T12:19:00.330Z,4.2
2023-03-07T12:20:00.355Z,4.2
2023-03-07T12:21:00.350Z,4.2
2023-03-07T12:22:00.329Z,4.2
2023-03-07T12:23:10.305Z,4.2
2023-03-07T12:24:04.300Z,4.3
2023-03-07T12:25:07.472Z,4.3
2023-03-07T12:26:05.501Z,4.2
2023-03-07T12:27:10.284Z,4.2
2023-03-07T12:28:09.620Z,4.3
2023-03-07T12:29:05.008Z,4.3
2023-03-07T12:30:03.997Z,4.3
2023-03-07T12:31:07.930Z,4.3
2023-03-07T12:32:03.514Z,4.4
2023-03-07T12:33:00.512Z,4.4
2023-03-07T12:34:00.329Z,4.4
2023-03-07T12:35:09.676Z,4.4
2023-03-07T12:36:03.368Z,4.2
2023-03-07T12:37:10.298Z,4.2
2023-03-07T12:38:06.785Z,4.2
2023-03-07T12:39:04.454Z,4.2
2023-03-07T12:40:02.956Z,4.1
2023-03-07T12:41:10.306Z,4.1
2023-03-07T12:42:10.296Z,4.2
2023-03-07T12:43:09.996Z,4.2
2023-03-07T12:44:04.119Z,4.3
2023-03-07T12:45:10.315Z,4.3
2023-03-07T12:46:10.366Z,4.3
2023-03-07T12:47:10.307Z,4.3
2023-03-07T12:48:10.302Z,4.3
2023-03-07T12:49:07.637Z,4.3
2023-03-07T12:50:01.366Z,4.3
2023-03-07T12:51:07.511Z,4.3
2023-03-07T12:52:03.546Z,4.3
2023-03-07T12:53:05.171Z,4.3
2023-03-07T12:54:10.309Z,4.3
2023-03-07T12:55:05.708Z,4.3
2023-03-07T12:56:03.666Z,4.3
2023-03-07T12:57:02.823Z,4.3
2023-03-07T12:58:10.281Z,4.2
2023-03-07T12:59:10.279Z,4.2
2023-03-07T13:00:03.254Z,4.3
2023-03-07T13:01:02.661Z,4.3
2023-03-07T13:02:10.205Z,4.3
2023-03-07T13:03:02.178Z,4.3
2023-03-07T13:04:01.519Z,4.3
2023-03-07T13:05:00.425Z,4.3
2023-03-07T13:06:00.628Z,4.3
2023-03-07T13:07:10.296Z,4.3
2023-03-07T13:08:01.195Z,4.3
2023-03-07T13:09:01.296Z,4.3
2023-03-07T13:10:02.994Z,4.3
2023-03-07T13:11:00.350Z,4.3
2023-03-07T13:12:10.286Z,4.2
2023-03-07T13:13:00.398Z,4.2
2023-03-07T13:14:01.153Z,4.2
2023-03-07T13:15:00.351Z,4.2
2023-03-07T13:16:01.882Z,4.2
2023-03-07T13:17:00.396Z,4.2
2023-03-07T13:18:00.384Z,4.2
2023-03-07T13:19:10.280Z,4.2
2023-03-07T13:20:02.263Z,4.2
2023-03-07T13:21:09.657Z,4.2
2023-03-07T13:22:02.314Z,4.1
2023-03-07T13:23:10.327Z,4.1
2023-03-07T13:24:10.302Z,4.1
2023-03-07T13:25:10.273Z,4.1
2023-03-07T13:26:02.127Z,4.1
2023-03-07T13:27:01.430Z,4.1
2023-03-07T13:28:02.161Z,3.9
2023-03-07T13:29:00.352Z,3.9
2023-03-07T13:30:10.301Z,3.9
2023-03-07T13:31:10.327Z,3.9
2023-03-07T13:32:00.356Z,4.0
2023-03-07T13:33:00.337Z,4.0
2023-03-07T13:34:10.276Z,4.0
2023-03-07T13:35:00.351Z,4.0
2023-03-07T13:36:00.340Z,4.0
2023-03-07T13:37:10.265Z,4.0
2023-03-07T13:38:01.372Z,3.8
2023-03-07T13:39:00.676Z,3.8
2023-03-07T13:40:00.452Z,3.8
2023-03-07T13:41:01.574Z,3.8
2023-03-07T13:42:00.345Z,3.8
2023-03-07T13:43:01.336Z,3.8
2023-03-07T13:44:00.894Z,3.9
2023-03-07T13:45:00.340Z,3.9
2023-03-07T13:46:02.630Z,3.9